createdAt,value
2023-04-16T00:01:26.176Z,12.77
2023-04-16T00:03:53.341Z,13.13
2023-04-16T00:06:20.689Z,11.80
2023-04-16T00:08:47.927Z,12.38
2023-04-16T00:11:16.532Z,11.45
2023-04-16T00:13:43.769Z,11.93
2023-04-16T00:16:10.911Z,11.90
2023-04-16T00:18:38.025Z,12.57
2023-04-16T00:21:07.780Z,12.07
2023-04-16T00:23:34.899Z,11.88
2023-04-16T00:26:04.444Z,11.82
2023-04-16T00:28:31.397Z,10.38
2023-04-16T00:30:58.474Z,11.63
2023-04-16T00:33:30.079Z,12.05
2023-04-16T00:35:57.130Z,11.43
2023-04-16T00:38:24.046Z,11.18
2023-04-16T00:40:53.543Z,11.52
2023-04-16T00:43:25.560Z,11.70
2023-04-16T00:45:56.639Z,10.90
2023-04-16T00:48:23.759Z,10.48
2023-04-16T00:50:56.562Z,10.23
2023-04-16T00:53:26.083Z,11.55
2023-04-16T00:55:53.137Z,10.82
2023-04-16T00:58:20.401Z,11.20
2023-04-16T01:00:53.508Z,10.57
2023-04-16T01:03:20.823Z,11.02
2023-04-16T01:05:50.982Z,10.70
2023-04-16T01:08:24.407Z,10.50
2023-04-16T01:10:51.433Z,10.57
2023-04-16T01:13:18.148Z,10.02
2023-04-16T01:15:45.049Z,10.38
2023-04-16T01:18:21.550Z,9.50
2023-04-16T01:20:49.662Z,10.05
2023-04-16T01:23:18.745Z,9.63
2023-04-16T01:25:46.397Z,9.68
2023-04-16T01:28:13.504Z,9.27
2023-04-16T01:30:40.397Z,9.63
2023-04-16T01:33:08.255Z,9.90
2023-04-16T01:35:35.501Z,9.98
2023-04-16T01:38:02.906Z,9.52
2023-04-16T01:40:29.896Z,9.05
2023-04-16T01:42:56.767Z,8.30
2023-04-16T01:45:23.556Z,8.55
2023-04-16T01:47:51.380Z,8.75
2023-04-16T01:50:18.933Z,8.50
2023-04-16T01:52:45.965Z,9.25
2023-04-16T01:55:16.117Z,9.57
2023-04-16T01:57:43.051Z,11.60
2023-04-16T02:00:10.199Z,9.65
2023-04-16T02:02:37.276Z,9.77
2023-04-16T02:05:04.488Z,11.10
2023-04-16T02:07:34.389Z,10.20
2023-04-16T02:10:01.312Z,10.70
2023-04-16T02:12:28.187Z,9.90
2023-04-16T02:14:56.401Z,10.60
2023-04-16T02:17:23.219Z,10.65
2023-04-16T02:19:50.200Z,10.85
2023-04-16T02:22:17.124Z,10.18
2023-04-16T02:24:44.034Z,10.43
2023-04-16T02:27:12.134Z,10.27
2023-04-16T02:29:39.165Z,9.02
2023-04-16T02:32:06.733Z,9.00
2023-04-16T02:34:34.912Z,9.57
2023-04-16T02:37:01.944Z,8.43
2023-04-16T02:39:28.891Z,9.30
2023-04-16T02:41:56.340Z,9.20
2023-04-16T02:44:23.366Z,7.78
2023-04-16T02:46:50.484Z,7.80
2023-04-16T02:49:17.460Z,7.40
2023-04-16T02:51:44.414Z,7.13
2023-04-16T02:54:13.932Z,7.35
2023-04-16T02:56:40.997Z,7.45
2023-04-16T02:59:08.176Z,7.40
2023-04-16T03:01:35.276Z,6.95
2023-04-16T03:04:02.420Z,6.30
2023-04-16T03:06:29.272Z,7.30
2023-04-16T03:08:56.336Z,5.65
2023-04-16T03:11:23.863Z,6.75
2023-04-16T03:13:50.907Z,5.97
2023-04-16T03:16:17.919Z,7.85
2023-04-16T03:18:47.954Z,6.38
2023-04-16T03:21:15.029Z,6.60
2023-04-16T03:23:42.167Z,5.88
2023-04-16T03:26:10.847Z,5.70
2023-04-16T03:28:37.925Z,5.40
2023-04-16T03:31:05.216Z,5.65
2023-04-16T03:33:39.576Z,6.00
2023-04-16T03:36:06.910Z,6.35
2023-04-16T03:38:33.853Z,6.35
2023-04-16T03:41:01.134Z,6.03
2023-04-16T03:43:28.006Z,6.28
2023-04-16T03:45:55.270Z,5.88
2023-04-16T03:48:22.123Z,5.93
2023-04-16T03:50:49.077Z,5.55
2023-04-16T03:53:16.289Z,6.53
2023-04-16T03:55:43.196Z,5.82
2023-04-16T03:58:10.290Z,4.90
2023-04-16T04:00:37.247Z,5.32
2023-04-16T04:03:04.380Z,4.65
2023-04-16T04:05:31.414Z,5.38
2023-04-16T04:07:58.271Z,4.38
2023-04-16T04:10:25.671Z,3.97
2023-04-16T04:12:53.180Z,3.78
2023-04-16T04:15:20.043Z,3.80
2023-04-16T04:17:51.187Z,4.28
2023-04-16T04:20:19.313Z,4.30
2023-04-16T04:22:46.360Z,4.68
2023-04-16T04:25:13.288Z,5.75
2023-04-16T04:27:40.165Z,8.00
2023-04-16T04:30:07.951Z,8.48
2023-04-16T04:32:37.400Z,8.00
2023-04-16T04:35:04.415Z,8.02
2023-04-16T04:37:32.029Z,8.13
2023-04-16T04:39:58.952Z,9.07
2023-04-16T04:42:26.357Z,8.10
2023-04-16T04:44:53.318Z,7.82
2023-04-16T04:47:20.302Z,9.48
2023-04-16T04:49:47.297Z,9.18
2023-04-16T04:52:14.326Z,8.93
2023-04-16T04:54:41.977Z,8.73
2023-04-16T04:57:09.142Z,9.63
2023-04-16T04:59:36.451Z,8.68
2023-04-16T05:02:03.701Z,10.50
2023-04-16T05:04:31.424Z,12.65
2023-04-16T05:07:02.632Z,11.77
2023-04-16T05:09:29.771Z,10.02
2023-04-16T05:11:58.968Z,9.10
2023-04-16T05:14:26.585Z,9.00
2023-04-16T05:16:54.387Z,8.50
2023-04-16T05:19:21.370Z,8.65
2023-04-16T05:21:48.315Z,8.60
2023-04-16T05:24:15.265Z,7.97
2023-04-16T05:26:42.150Z,9.23
2023-04-16T05:29:14.914Z,9.18
2023-04-16T05:31:41.946Z,9.60
2023-04-16T05:34:09.165Z,9.95
2023-04-16T05:36:36.506Z,9.30
2023-04-16T05:39:06.207Z,9.38
2023-04-16T05:41:33.354Z,8.93
2023-04-16T05:44:09.355Z,10.25
2023-04-16T05:46:48.354Z,9.48
2023-04-16T05:49:15.843Z,10.20
2023-04-16T05:51:42.811Z,9.20
2023-04-16T05:54:09.996Z,10.50
2023-04-16T05:56:41.919Z,10.15
2023-04-16T05:59:11.984Z,9.63
2023-04-16T06:01:39.234Z,11.00
2023-04-16T06:04:06.648Z,9.38
2023-04-16T06:06:33.929Z,9.50
2023-04-16T06:09:17.889Z,9.27
2023-04-16T06:11:45.125Z,9.93
2023-04-16T06:14:12.121Z,9.13
2023-04-16T06:16:39.119Z,9.32
2023-04-16T06:19:06.339Z,9.73
2023-04-16T06:21:38.076Z,9.50
2023-04-16T06:25:03.863Z,8.90
2023-04-16T06:28:00.198Z,9.07
2023-04-16T06:31:02.612Z,9.07
2023-04-16T06:33:27.893Z,9.02
2023-04-16T06:36:41.827Z,9.88
2023-04-16T06:39:06.125Z,6.80
2023-04-16T06:41:39.145Z,8.90
2023-04-16T06:44:12.855Z,7.95
2023-04-16T06:46:52.729Z,8.95
2023-04-16T06:50:23.177Z,8.63
2023-04-16T07:10:23.715Z,6.75
2023-04-16T07:12:54.621Z,6.43
2023-04-16T07:15:33.807Z,6.65
2023-04-16T07:25:00.896Z,7.50
2023-04-16T07:27:34.821Z,6.53
2023-04-16T07:45:58.901Z,6.10
2023-04-16T07:49:38.627Z,6.00
2023-04-16T07:56:11.294Z,6.88
2023-04-16T07:59:18.407Z,6.47
2023-04-16T08:02:13.448Z,6.32
2023-04-16T08:22:31.256Z,5.63
2023-04-16T08:25:48.835Z,5.90
2023-04-16T08:31:11.334Z,4.43
2023-04-16T08:33:49.263Z,4.75
2023-04-16T08:39:13.488Z,4.25
2023-04-16T08:41:54.459Z,4.15
2023-04-16T08:44:25.961Z,4.47
2023-04-16T08:47:08.198Z,3.72
2023-04-16T08:49:47.038Z,3.28
2023-04-16T08:52:22.250Z,3.38
2023-04-16T08:55:11.659Z,3.50
2023-04-16T08:58:26.718Z,2.42
2023-04-16T09:03:52.577Z,3.33
2023-04-16T09:06:38.889Z,3.15
2023-04-16T09:09:10.484Z,3.00
2023-04-16T09:14:41.989Z,1.98
2023-04-16T09:17:09.240Z,2.03
2023-04-16T09:19:40.063Z,2.60
2023-04-16T09:22:19.204Z,2.42
2023-04-16T09:24:46.528Z,2.00
2023-04-16T09:27:15.851Z,1.58
2023-04-16T09:29:43.290Z,1.90
2023-04-16T09:32:13.993Z,1.83
2023-04-16T09:34:58.124Z,1.95
2023-04-16T09:37:26.172Z,2.35
2023-04-16T09:40:04.150Z,2.00
2023-04-16T09:42:33.355Z,1.75
2023-04-16T09:45:22.006Z,1.77
2023-04-16T09:48:33.741Z,1.83
2023-04-16T09:51:17.059Z,1.40
2023-04-16T09:53:44.153Z,1.67
2023-04-16T09:56:12.123Z,0.93
2023-04-16T09:58:39.080Z,1.00
2023-04-16T10:01:22.907Z,0.90
2023-04-16T10:03:49.987Z,1.00
2023-04-16T10:06:19.652Z,1.10
2023-04-16T10:08:50.706Z,1.50
2023-04-16T10:11:17.771Z,1.13
2023-04-16T10:13:45.013Z,1.10
2023-04-16T10:16:12.253Z,1.20
2023-04-16T10:18:43.005Z,1.00
2023-04-16T10:21:12.738Z,0.73
2023-04-16T10:23:40.408Z,1.00
2023-04-16T10:26:10.145Z,1.10
2023-04-16T10:28:39.656Z,0.90
2023-04-16T10:31:08.338Z,0.80
2023-04-16T10:33:36.540Z,0.90
2023-04-16T10:36:17.359Z,0.90
2023-04-16T10:38:48.863Z,0.68
2023-04-16T10:41:15.892Z,0.90
2023-04-16T10:43:50.251Z,0.90
2023-04-16T10:46:33.897Z,0.70
2023-04-16T10:49:01.899Z,1.00
2023-04-16T10:51:29.056Z,0.50
2023-04-16T10:53:57.676Z,0.65
2023-04-16T10:56:26.332Z,0.60
2023-04-16T10:58:55.368Z,0.60
2023-04-16T11:01:38.612Z,0.60
2023-04-16T11:04:21.332Z,1.38
2023-04-16T11:07:00.941Z,0.40
2023-04-16T11:09:52.469Z,0.60
2023-04-16T11:12:20.829Z,0.50
2023-04-16T11:14:51.194Z,0.70
2023-04-16T11:17:22.749Z,0.70
2023-04-16T11:19:49.802Z,0.60
2023-04-16T11:22:17.547Z,0.47
2023-04-16T11:24:45.690Z,0.65
2023-04-16T11:27:16.226Z,0.55
2023-04-16T11:29:45.063Z,0.50
2023-04-16T11:32:26.228Z,0.50
2023-04-16T11:35:09.633Z,0.60
2023-04-16T11:37:37.700Z,0.60
2023-04-16T11:40:11.000Z,0.50
2023-04-16T11:42:40.616Z,0.60
2023-04-16T11:45:08.657Z,0.55
2023-04-16T11:47:52.123Z,1.50
2023-04-16T11:50:21.036Z,0.50
2023-04-16T11:52:48.122Z,0.50
2023-04-16T11:55:15.580Z,0.63
2023-04-16T11:57:42.706Z,0.60
2023-04-16T12:00:15.968Z,0.60
2023-04-16T12:02:44.918Z,0.65
2023-04-16T12:05:39.083Z,0.73
2023-04-16T12:08:10.340Z,0.65
2023-04-16T12:10:38.646Z,0.77
2023-04-16T12:13:15.734Z,0.50
2023-04-16T12:15:46.430Z,0.40
2023-04-16T12:18:14.355Z,0.52
2023-04-16T12:20:45.079Z,0.55
2023-04-16T12:23:25.985Z,0.68
2023-04-16T12:25:55.322Z,0.50
2023-04-16T12:28:32.758Z,0.70
2023-04-16T12:30:59.928Z,0.60
2023-04-16T12:33:40.556Z,0.68
2023-04-16T12:36:20.144Z,0.70
2023-04-16T12:38:47.288Z,0.60
2023-04-16T12:41:14.100Z,0.60
2023-04-16T12:43:42.434Z,0.70
2023-04-16T12:46:09.724Z,0.60
2023-04-16T12:48:36.719Z,0.55
2023-04-16T12:51:03.801Z,0.75
2023-04-16T12:53:30.892Z,0.60
2023-04-16T12:55:57.701Z,0.50
2023-04-16T12:58:24.497Z,0.70
2023-04-16T13:00:51.591Z,0.73
2023-04-16T13:03:25.954Z,0.70
2023-04-16T13:05:53.051Z,0.60
2023-04-16T13:08:20.163Z,0.60
2023-04-16T13:10:47.076Z,0.50
2023-04-16T13:13:16.612Z,0.60
2023-04-16T13:15:43.413Z,0.80
2023-04-16T13:18:10.446Z,0.63
2023-04-16T13:20:39.994Z,0.57
2023-04-16T13:23:07.366Z,0.50
2023-04-16T13:25:34.199Z,0.60
2023-04-16T13:28:01.396Z,0.60
2023-04-16T13:30:29.450Z,0.70
2023-04-16T13:32:56.886Z,0.90
2023-04-16T13:35:26.859Z,0.73
2023-04-16T13:37:53.699Z,0.90
2023-04-16T13:40:20.827Z,0.90
2023-04-16T13:42:47.715Z,0.90
2023-04-16T13:45:14.741Z,0.70
2023-04-16T13:47:44.590Z,0.70
2023-04-16T13:50:12.336Z,1.02
2023-04-16T13:52:45.478Z,0.75
2023-04-16T13:55:14.205Z,0.60
2023-04-16T13:57:43.431Z,0.60
2023-04-16T14:00:13.217Z,0.60
2023-04-16T14:02:50.693Z,0.65
2023-04-16T14:05:17.991Z,0.80
2023-04-16T14:07:45.647Z,13.68
2023-04-16T14:10:15.038Z,0.90
2023-04-16T14:12:42.738Z,0.60
2023-04-16T14:15:10.436Z,0.50
2023-04-16T14:17:37.716Z,0.60
2023-04-16T14:20:07.536Z,0.50
2023-04-16T14:22:34.710Z,0.40
2023-04-16T14:25:01.621Z,0.50
2023-04-16T14:27:28.780Z,0.50
2023-04-16T14:29:58.748Z,0.50
2023-04-16T14:32:26.159Z,0.50
2023-04-16T14:34:53.323Z,0.50
2023-04-16T14:37:20.216Z,0.45
2023-04-16T14:39:48.405Z,0.50
2023-04-16T14:42:15.258Z,0.60
2023-04-16T14:44:42.140Z,0.47
2023-04-16T14:47:14.425Z,0.52
2023-04-16T14:49:41.482Z,0.45
2023-04-16T14:52:11.186Z,0.50
2023-04-16T14:54:38.212Z,0.50
2023-04-16T14:57:04.987Z,0.50
2023-04-16T14:59:32.385Z,0.40
2023-04-16T15:01:59.527Z,0.50
2023-04-16T15:04:29.580Z,0.40
2023-04-16T15:06:59.288Z,0.50
2023-04-16T15:09:27.485Z,0.50
2023-04-16T15:11:54.682Z,0.55
2023-04-16T15:14:24.946Z,0.77
2023-04-16T15:16:51.859Z,0.50
2023-04-16T15:19:18.816Z,0.52
2023-04-16T15:21:47.516Z,0.82
2023-04-16T15:24:18.595Z,0.47
2023-04-16T15:26:45.452Z,0.70
2023-04-16T15:29:14.574Z,0.43
2023-04-16T15:31:43.961Z,0.50
2023-04-16T15:34:13.356Z,0.60
2023-04-16T15:36:40.527Z,0.70
2023-04-16T15:39:07.526Z,0.55
2023-04-16T15:41:53.382Z,0.50
2023-04-16T15:44:26.872Z,0.57
2023-04-16T15:46:56.290Z,0.50
2023-04-16T15:49:27.931Z,0.50
2023-04-16T15:51:54.909Z,0.40
2023-04-16T15:54:21.777Z,0.50
2023-04-16T15:56:48.622Z,0.70
2023-04-16T15:59:20.930Z,0.47
2023-04-16T16:01:48.572Z,0.52
2023-04-16T16:04:15.522Z,0.45
2023-04-16T16:06:42.757Z,0.60
2023-04-16T16:09:10.493Z,0.57
2023-04-16T16:11:38.448Z,0.50
2023-04-16T16:14:07.805Z,0.43
2023-04-16T16:16:35.251Z,0.47
2023-04-16T16:19:18.337Z,0.68
2023-04-16T16:21:45.456Z,0.70
2023-04-16T16:24:15.208Z,0.50
2023-04-16T16:26:42.253Z,0.50
2023-04-16T16:29:09.461Z,0.52
2023-04-16T16:31:36.575Z,0.40
2023-04-16T16:34:03.537Z,0.60
2023-04-16T16:36:32.388Z,0.43
2023-04-16T16:38:59.208Z,0.50
2023-04-16T16:41:31.066Z,0.70
2023-04-16T16:44:00.566Z,0.60
2023-04-16T16:46:27.395Z,0.30
2023-04-16T16:48:54.333Z,0.40
2023-04-16T16:51:21.638Z,0.50
2023-04-16T16:53:48.529Z,0.40
2023-04-16T16:56:18.407Z,0.40
2023-04-16T16:58:45.256Z,0.45
2023-04-16T17:01:12.134Z,0.35
2023-04-16T17:03:39.571Z,0.63
2023-04-16T17:06:06.988Z,0.40
2023-04-16T17:08:33.729Z,0.55
2023-04-16T17:11:05.261Z,0.60
2023-04-16T17:13:32.951Z,0.50
2023-04-16T17:15:59.901Z,0.40
2023-04-16T17:18:26.977Z,0.68
2023-04-16T17:20:53.979Z,0.40
2023-04-16T17:23:21.330Z,0.50
2023-04-16T17:25:50.756Z,0.43
2023-04-16T17:28:17.838Z,0.40
2023-04-16T17:30:45.224Z,0.43
2023-04-16T17:33:13.587Z,0.50
2023-04-16T17:38:57.431Z,0.60
2023-04-16T17:41:24.552Z,0.50
2023-04-16T17:43:51.613Z,0.52
2023-04-16T17:46:21.844Z,0.45
2023-04-16T17:48:49.009Z,0.40
2023-04-16T17:51:18.742Z,0.60
2023-04-16T17:53:45.585Z,0.40
2023-04-16T17:56:13.317Z,0.50
2023-04-16T17:58:40.269Z,0.40
2023-04-16T18:01:07.308Z,0.40
2023-04-16T18:03:34.551Z,0.40
2023-04-16T18:06:01.524Z,0.30
2023-04-16T18:08:31.261Z,0.50
2023-04-16T18:10:58.277Z,0.60
2023-04-16T18:13:25.505Z,0.47
2023-04-16T18:15:53.221Z,0.40
2023-04-16T18:18:21.534Z,1.00
2023-04-16T18:20:48.551Z,0.77
2023-04-16T18:23:15.441Z,0.57
2023-04-16T18:25:42.416Z,0.50
2023-04-16T18:28:24.608Z,0.50
2023-04-16T18:30:59.130Z,0.50
2023-04-16T18:33:58.391Z,0.60
2023-04-16T18:36:57.825Z,0.57
2023-04-16T18:39:24.885Z,0.73
2023-04-16T18:41:52.284Z,0.50
2023-04-16T18:44:23.393Z,0.50
2023-04-16T18:49:36.222Z,0.60
2023-04-16T18:52:03.388Z,0.63
2023-04-16T18:54:30.296Z,0.70
2023-04-16T18:56:59.061Z,0.50
2023-04-16T18:59:30.526Z,0.60
2023-04-16T19:01:57.519Z,0.50
2023-04-16T19:04:28.787Z,0.70
2023-04-16T19:06:58.530Z,0.70
2023-04-16T19:09:26.574Z,0.57
2023-04-16T19:11:53.379Z,0.80
2023-04-16T19:14:25.710Z,1.25
2023-04-16T19:16:55.958Z,0.70
2023-04-16T19:19:22.891Z,1.00
2023-04-16T19:21:49.920Z,0.82
2023-04-16T19:24:16.986Z,0.60
2023-04-16T19:26:43.755Z,0.60
2023-04-16T19:29:11.048Z,1.08
2023-04-16T19:31:38.274Z,0.65
2023-04-16T19:34:05.873Z,1.20
2023-04-16T19:36:32.945Z,0.73
2023-04-16T19:39:01.138Z,0.70
2023-04-16T19:41:28.272Z,0.95
2023-04-16T19:43:55.816Z,0.88
2023-04-16T19:46:35.910Z,2.42
2023-04-16T19:49:29.179Z,0.90
2023-04-16T19:52:52.523Z,0.70
2023-04-16T19:58:33.217Z,0.82
2023-04-16T20:01:05.816Z,0.93
2023-04-16T20:03:43.220Z,1.33
2023-04-16T20:06:13.221Z,1.67
2023-04-16T20:08:41.479Z,2.58
2023-04-16T20:11:08.763Z,2.00
2023-04-16T20:13:37.695Z,1.67
2023-04-16T20:16:06.056Z,2.33
2023-04-16T20:18:32.920Z,1.85
2023-04-16T20:21:04.044Z,3.75
2023-04-16T20:23:32.588Z,2.92
2023-04-16T20:25:59.628Z,2.45
2023-04-16T20:28:26.551Z,1.40
2023-04-16T20:30:54.334Z,1.33
2023-04-16T20:33:21.588Z,1.00
2023-04-16T20:35:49.219Z,0.80
2023-04-16T20:38:16.238Z,1.00
2023-04-16T20:40:45.283Z,0.80
2023-04-16T20:43:14.728Z,1.02
2023-04-16T20:45:46.021Z,0.77
2023-04-16T20:48:13.414Z,0.80
2023-04-16T20:50:40.835Z,1.25
2023-04-16T20:53:15.529Z,0.95
2023-04-16T20:55:46.157Z,0.77
2023-04-16T20:58:13.195Z,0.95
2023-04-16T21:00:45.517Z,1.02
2023-04-16T21:03:17.706Z,0.90
2023-04-16T21:05:53.426Z,0.80
2023-04-16T21:08:21.180Z,0.90
2023-04-16T21:10:48.472Z,0.85
2023-04-16T21:13:17.059Z,0.90
2023-04-16T21:15:47.458Z,0.77
2023-04-16T21:18:14.671Z,0.88
2023-04-16T21:20:41.640Z,1.27
2023-04-16T21:23:18.569Z,0.95
2023-04-16T21:25:45.748Z,1.00
2023-04-16T21:28:15.279Z,0.82
2023-04-16T21:30:42.466Z,1.15
2023-04-16T21:33:09.567Z,1.17
2023-04-16T21:35:39.914Z,0.80
2023-04-16T21:38:07.247Z,0.90
2023-04-16T21:40:35.124Z,0.90
2023-04-16T21:43:49.989Z,0.90
2023-04-16T21:46:33.072Z,0.70
2023-04-16T21:49:12.933Z,1.00
2023-04-16T21:51:40.820Z,0.77
2023-04-16T21:54:07.903Z,0.93
2023-04-16T21:56:35.276Z,1.05
2023-04-16T21:59:02.825Z,0.90
2023-04-16T22:01:33.392Z,0.88
2023-04-16T22:04:02.314Z,0.77
2023-04-16T22:06:39.985Z,0.80
2023-04-16T22:09:15.775Z,0.85
2023-04-16T22:11:46.563Z,0.80
2023-04-16T22:17:13.206Z,0.75
2023-04-16T22:19:59.263Z,1.00
2023-04-16T22:22:32.513Z,1.00
2023-04-16T22:25:05.385Z,0.68
2023-04-16T22:27:35.553Z,1.15
2023-04-16T22:30:30.997Z,1.00
2023-04-16T22:32:58.187Z,0.90
2023-04-16T22:35:45.490Z,1.30
2023-04-16T22:38:48.941Z,1.42
2023-04-16T22:41:16.523Z,1.00
2023-04-16T22:43:57.095Z,1.17
2023-04-16T22:47:00.835Z,1.05
2023-04-16T22:50:00.517Z,0.98
2023-04-16T22:52:27.885Z,0.88
2023-04-16T22:54:54.850Z,1.17
2023-04-16T22:57:25.955Z,1.08
2023-04-16T22:59:59.446Z,0.88
2023-04-16T23:03:00.982Z,1.98
2023-04-16T23:05:28.283Z,1.13
2023-04-16T23:08:22.482Z,1.17
2023-04-16T23:10:52.912Z,1.40
2023-04-16T23:13:19.967Z,1.20
2023-04-16T23:15:47.510Z,1.20
2023-04-16T23:18:21.685Z,1.00
2023-04-16T23:20:53.988Z,1.13
2023-04-16T23:23:26.360Z,1.13
2023-04-16T23:25:56.120Z,1.00
2023-04-16T23:28:23.309Z,1.00
2023-04-16T23:30:53.590Z,1.13
2023-04-16T23:33:20.878Z,1.92
2023-04-16T23:35:48.134Z,1.20
2023-04-16T23:38:24.125Z,1.00
2023-04-16T23:40:51.378Z,1.40
2023-04-16T23:43:21.032Z,1.17
2023-04-16T23:45:48.040Z,1.00
2023-04-16T23:48:15.028Z,1.10
2023-04-16T23:50:42.106Z,1.17
2023-04-16T23:53:09.225Z,1.73
2023-04-16T23:55:36.290Z,1.00
2023-04-16T23:58:03.574Z,0.95
